YZX weather

CFB Greenwood
Greenwood, Nova Scotia, Canada

Public forecast

Using degrees Celsius for public forecast. Weather courtesy of forecast.io.

Current aviation weather report (METAR) for CFB Greenwood

Retrieved 2019/10/22 09:00 UTC (43 minutes ago):

CYZX 220900Z 00000KT 15SM SKC 00/M01 A3024 RMK SLP241

Aviation forecast (TAF) for CFB Greenwood

Retrieved 2019/10/22 06:33 UTC (3 hours ago):

TAF CYZX 220530Z 2206/2306 VRB03KT P6SM SKC FM220800 VRB03KT 6SM BR SCT002 PROB30 2208/2212 1/2SM FG VV002 FM221300 07010KT P6SM FEW020 BKN250 FM222200 12008KT P6SM BKN200 RMK NXT FCST BY 221200Z